Time;durP1;ratioP1;P1;durP2;ratioP2;P2;SDS_P1;SDS_P2;PMS_P1;PMS_P2;Temp;Humidity;BMP_temperature;BMP_pressure;BME280_temperature;BME280_humidity;BME280_pressure;Samples;Min_cycle;Max_cycle;Signal;HPM_P1;HPM_P2
2022/05/19 00:01:16;;;;;;;12.40;9.07;;;;;;;28.88;37.47;101815.63;5057746;28;20033;-70
2022/05/19 00:03:41;;;;;;;13.38;8.57;;;;;;;28.71;37.92;101810.59;5029070;28;20025;-70
2022/05/19 00:06:08;;;;;;;16.40;9.30;;;;;;;28.92;37.49;101805.47;5031380;28;20461;-70
2022/05/19 00:08:35;;;;;;;14.32;9.50;;;;;;;28.91;37.43;101799.25;5028895;28;20144;-71
2022/05/19 00:11:04;;;;;;;13.70;8.75;;;;;;;29.09;37.03;101797.03;5024114;28;20494;-70
2022/05/19 00:13:31;;;;;;;12.13;8.63;;;;;;;29.17;37.28;101803.69;5028929;28;20466;-71
2022/05/19 00:15:56;;;;;;;14.20;9.30;;;;;;;29.66;36.34;101797.31;5029361;28;20036;-70
2022/05/19 00:18:22;;;;;;;13.07;9.20;;;;;;;28.66;38.20;101808.25;5029343;28;20021;-70
2022/05/19 00:20:47;;;;;;;16.65;10.05;;;;;;;29.41;37.12;101806.41;5013880;28;20044;-70
2022/05/19 00:23:14;;;;;;;13.73;8.88;;;;;;;29.39;36.80;101803.00;5042730;28;20037;-70
2022/05/19 00:25:39;;;;;;;15.82;9.70;;;;;;;28.92;38.40;101800.97;5061666;28;20100;-71
2022/05/19 00:28:05;;;;;;;14.27;9.70;;;;;;;29.18;37.42;101800.91;5029320;28;20034;-70
2022/05/19 00:30:31;;;;;;;15.05;9.75;;;;;;;29.52;37.01;101794.84;5028600;28;20128;-70
2022/05/19 00:32:57;;;;;;;14.75;10.45;;;;;;;29.30;37.17;101790.22;5060654;28;20063;-70
2022/05/19 00:35:22;;;;;;;16.42;10.63;;;;;;;29.01;37.86;101787.81;5029077;28;20442;-70
2022/05/19 00:37:48;;;;;;;16.10;9.77;;;;;;;29.58;37.09;101781.78;5059673;28;20031;-70
2022/05/19 00:40:15;;;;;;;21.30;11.27;;;;;;;29.59;37.15;101767.34;5010600;28;21401;-71
2022/05/19 00:42:43;;;;;;;18.33;11.07;;;;;;;29.10;37.80;101765.63;5030257;28;20504;-71
2022/05/19 00:45:10;;;;;;;13.68;10.65;;;;;;;29.73;36.52;101751.94;5046656;28;20087;-71
2022/05/19 00:47:41;;;;;;;17.83;11.05;;;;;;;29.04;38.03;101758.84;5028237;28;20022;-71
2022/05/19 00:50:14;;;;;;;16.45;11.70;;;;;;;29.24;37.49;101745.75;5029743;28;20034;-70
2022/05/19 00:52:44;;;;;;;13.70;10.40;;;;;;;28.87;38.44;101746.63;5029579;28;20116;-70
2022/05/19 00:55:16;;;;;;;17.90;11.20;;;;;;;29.14;38.09;101742.00;5029791;28;20033;-70
2022/05/19 00:57:52;;;;;;;17.20;12.68;;;;;;;29.17;38.03;101753.41;5018005;28;20030;-71
2022/05/19 01:00:20;;;;;;;18.73;12.27;;;;;;;29.21;37.82;101745.94;5030610;28;20044;-71
2022/05/19 01:02:51;;;;;;;17.67;11.85;;;;;;;28.72;38.46;101734.31;5029024;28;20463;-70
2022/05/19 01:05:22;;;;;;;22.00;11.93;;;;;;;29.53;37.15;101751.63;5029923;28;20083;-70
2022/05/19 01:07:54;;;;;;;18.77;11.40;;;;;;;29.16;37.77;101735.53;5028458;28;20022;-71
2022/05/19 01:10:19;;;;;;;16.90;11.80;;;;;;;29.18;37.81;101725.53;5062912;28;20500;-70
2022/05/19 01:12:48;;;;;;;16.58;11.50;;;;;;;29.14;37.72;101715.97;5030202;28;20033;-71
2022/05/19 01:15:14;;;;;;;19.40;12.10;;;;;;;29.31;37.63;101714.72;5028891;28;20033;-70
2022/05/19 01:17:40;;;;;;;17.58;12.68;;;;;;;29.48;37.61;101724.19;5062448;28;20026;-70
2022/05/19 01:20:14;;;;;;;17.15;11.60;;;;;;;29.64;37.13;101721.19;5050305;28;20030;-71
2022/05/19 01:22:52;;;;;;;20.52;12.27;;;;;;;29.48;37.58;101709.88;5044159;28;20113;-71
2022/05/19 01:25:24;;;;;;;21.67;12.98;;;;;;;29.17;38.23;101696.91;5022813;28;20049;-70
2022/05/19 01:27:49;;;;;;;19.50;12.80;;;;;;;29.32;37.92;101715.56;5029247;28;20201;-70
2022/05/19 01:30:15;;;;;;;18.65;12.25;;;;;;;29.56;37.17;101708.31;5029857;28;20029;-70
2022/05/19 01:32:41;;;;;;;17.83;12.45;;;;;;;29.64;37.39;101709.56;5031355;28;20435;-71
2022/05/19 01:35:07;;;;;;;17.83;12.10;;;;;;;29.73;36.80;101708.84;5032904;28;20052;-70
2022/05/19 01:37:32;;;;;;;19.85;12.15;;;;;;;29.49;37.67;101701.69;5030929;28;20032;-71
2022/05/19 01:40:28;;;;;;;20.05;13.10;;;;;;;29.59;37.76;101712.59;5038574;28;20038;-70
2022/05/19 01:43:15;;;;;;;22.95;13.90;;;;;;;29.75;37.21;101712.28;5032874;28;20116;-70
2022/05/19 01:45:49;;;;;;;18.23;13.32;;;;;;;29.98;36.83;101706.94;5048456;28;20041;-70
2022/05/19 01:48:36;;;;;;;17.55;13.00;;;;;;;29.69;37.20;101696.56;5064989;28;20424;-70
2022/05/19 01:51:23;;;;;;;20.58;13.48;;;;;;;29.64;37.88;101704.19;5058870;28;20056;-70
2022/05/19 01:54:00;;;;;;;19.75;13.23;;;;;;;29.85;36.82;101689.03;5031552;28;20169;-70
2022/05/19 01:56:31;;;;;;;20.50;11.48;;;;;;;30.05;36.53;101687.47;5033620;28;20432;-70
2022/05/19 01:58:56;;;;;;;18.15;12.20;;;;;;;29.92;36.97;101687.59;5032608;28;20559;-70
2022/05/19 02:01:25;;;;;;;21.08;13.57;;;;;;;29.93;36.77;101677.66;5055851;28;20185;-70
2022/05/19 02:04:09;;;;;;;19.73;12.90;;;;;;;30.04;36.93;101680.34;5033352;28;20124;-71
2022/05/19 02:06:44;;;;;;;21.00;12.88;;;;;;;30.18;36.65;101697.28;5029524;28;20021;-70
2022/05/19 02:09:18;;;;;;;23.13;13.05;;;;;;;29.31;38.31;101721.94;5048220;28;20496;-71
2022/05/19 02:11:56;;;;;;;20.63;14.25;;;;;;;28.29;40.68;101756.19;5032625;28;20042;-70
2022/05/19 02:14:33;;;;;;;24.75;15.88;;;;;;;28.09;42.00;101763.84;5039459;28;20107;-71
2022/05/19 02:17:04;;;;;;;23.80;15.13;;;;;;;28.23;42.44;101761.06;5031583;28;20488;-70
2022/05/19 02:19:35;;;;;;;22.95;16.38;;;;;;;27.52;45.24;101770.38;5032361;28;20029;-69
2022/05/19 02:22:03;;;;;;;26.27;17.65;;;;;;;28.24;43.92;101756.53;5027336;28;20033;-71
2022/05/19 02:24:33;;;;;;;36.55;19.75;;;;;;;28.46;43.29;101755.84;5065213;28;20188;-71
2022/05/19 02:27:17;;;;;;;32.72;20.48;;;;;;;26.57;47.59;101795.19;5030925;28;20045;-71
2022/05/19 02:29:42;;;;;;;32.55;20.52;;;;;;;25.85;51.22;101819.16;5028843;28;20030;-71
2022/05/19 02:32:09;;;;;;;31.58;21.73;;;;;;;26.33;50.35;101823.50;5012070;28;20032;-71
2022/05/19 02:34:34;;;;;;;35.38;22.17;;;;;;;26.56;49.81;101820.25;5023166;28;20042;-71
2022/05/19 02:36:59;;;;;;;35.58;23.23;;;;;;;26.63;49.48;101822.56;5029981;28;20013;-71
2022/05/19 02:39:25;;;;;;;39.55;24.52;;;;;;;26.82;49.19;101831.22;5064966;28;20049;-70
2022/05/19 02:41:50;;;;;;;35.30;22.05;;;;;;;26.58;50.85;101820.16;5030562;28;20045;-71
2022/05/19 02:44:15;;;;;;;38.13;21.60;;;;;;;26.44;51.54;101815.66;5031044;28;20029;-71
2022/05/19 02:46:41;;;;;;;36.72;21.13;;;;;;;26.79;50.30;101814.44;5064741;28;20064;-70
2022/05/19 02:49:06;;;;;;;30.58;19.85;;;;;;;27.10;49.58;101818.69;5030377;28;20029;-71
2022/05/19 02:51:31;;;;;;;32.50;20.10;;;;;;;27.78;48.41;101806.22;5035688;28;20029;-71
2022/05/19 02:53:57;;;;;;;31.85;18.95;;;;;;;28.51;45.80;101802.09;5031248;28;20485;-71
2022/05/19 02:56:23;;;;;;;32.22;18.55;;;;;;;27.33;49.22;101819.03;5032838;28;20025;-72
2022/05/19 02:58:48;;;;;;;20.48;12.57;;;;;;;26.55;50.64;101836.44;5062775;28;20477;-71
2022/05/19 03:01:13;;;;;;;20.42;10.98;;;;;;;27.08;51.29;101809.91;5029437;28;20496;-71
2022/05/19 03:03:39;;;;;;;13.88;7.78;;;;;;;26.86;50.19;101818.44;5031038;28;20369;-71
2022/05/19 03:06:04;;;;;;;7.90;4.38;;;;;;;26.30;52.07;101834.44;5030436;28;20488;-71
2022/05/19 03:08:29;;;;;;;7.28;3.22;;;;;;;26.30;52.97;101850.50;5031537;28;20498;-71
2022/05/19 03:10:55;;;;;;;6.57;2.72;;;;;;;25.85;53.20;101839.72;5029019;28;20117;-71
2022/05/19 03:13:22;;;;;;;3.90;2.65;;;;;;;26.76;51.88;101842.31;5029083;28;20029;-71
2022/05/19 03:15:49;;;;;;;5.68;2.55;;;;;;;27.23;50.21;101808.91;5031791;28;20079;-71
2022/05/19 03:18:15;;;;;;;8.18;2.55;;;;;;;26.91;50.79;101809.19;5029580;28;20021;-71
2022/05/19 03:20:41;;;;;;;4.85;2.30;;;;;;;26.57;52.61;101787.16;5030666;28;20041;-71
2022/05/19 03:23:07;;;;;;;5.15;2.80;;;;;;;27.99;48.36;101776.16;5030111;28;20040;-71
2022/05/19 03:25:32;;;;;;;5.72;2.70;;;;;;;26.75;51.48;101768.22;5029556;28;20057;-72
2022/05/19 03:27:58;;;;;;;6.47;3.30;;;;;;;26.66;52.07;101774.13;5030859;28;20105;-71
2022/05/19 03:30:23;;;;;;;5.53;3.03;;;;;;;27.12;50.52;101763.13;5031909;28;20420;-72
2022/05/19 03:32:48;;;;;;;5.60;3.38;;;;;;;27.37;49.78;101761.56;5027565;28;20356;-71
2022/05/19 03:35:17;;;;;;;5.95;3.63;;;;;;;27.55;48.67;101752.25;5029834;28;20026;-72
2022/05/19 03:37:44;;;;;;;5.47;3.10;;;;;;;27.20;50.06;101762.63;5029872;28;20407;-71
2022/05/19 03:40:10;;;;;;;4.00;3.22;;;;;;;27.16;49.09;101778.06;5030916;28;20545;-71
2022/05/19 03:42:36;;;;;;;4.22;2.70;;;;;;;27.88;47.66;101782.28;5029660;28;20032;-72
2022/05/19 03:45:03;;;;;;;5.05;2.90;;;;;;;27.89;47.03;101800.97;5026931;28;20028;-71
2022/05/19 03:47:28;;;;;;;7.70;3.47;;;;;;;28.19;47.13;101813.28;5028460;28;20031;-72
2022/05/19 03:49:54;;;;;;;3.50;2.65;;;;;;;27.88;47.57;101842.22;5029903;28;20031;-71
2022/05/19 03:52:19;;;;;;;4.07;2.83;;;;;;;27.34;49.51;101867.25;5029499;28;20013;-72
2022/05/19 03:54:45;;;;;;;3.72;2.88;;;;;;;26.90;51.08;101920.09;5028145;28;20025;-71
2022/05/19 03:57:12;;;;;;;4.40;3.15;;;;;;;25.38;59.48;101917.31;5030452;28;20476;-71
2022/05/19 03:59:38;;;;;;;5.35;3.33;;;;;;;27.70;50.13;101898.03;5063254;28;20021;-72
2022/05/19 04:02:04;;;;;;;11.95;3.90;;;;;;;27.19;51.39;101920.09;5030533;28;20382;-71
2022/05/19 04:04:30;;;;;;;7.20;3.80;;;;;;;27.35;50.91;101913.72;5051968;28;20079;-71
2022/05/19 04:06:55;;;;;;;5.70;3.30;;;;;;;26.82;51.62;101906.28;5010509;28;20022;-72
2022/05/19 04:09:21;;;;;;;5.47;4.22;;;;;;;27.62;49.93;101894.16;5017446;28;20038;-73
2022/05/19 04:11:46;;;;;;;5.32;4.40;;;;;;;27.41;49.77;101887.38;5011757;28;20112;-73
2022/05/19 04:14:12;;;;;;;6.10;4.18;;;;;;;28.89;46.19;101855.00;5023617;28;20108;-74
2022/05/19 04:16:37;;;;;;;4.50;4.07;;;;;;;29.21;45.22;101857.19;5029007;28;20477;-73
2022/05/19 04:19:04;;;;;;;6.53;4.22;;;;;;;28.74;45.53;101837.25;5029123;28;20025;-73
2022/05/19 04:21:30;;;;;;;10.07;4.80;;;;;;;29.46;43.84;101815.00;5029344;28;20025;-73
2022/05/19 04:23:56;;;;;;;6.30;4.78;;;;;;;29.19;45.59;101813.34;5017002;28;20029;-73
2022/05/19 04:26:23;;;;;;;9.80;5.35;;;;;;;29.39;44.26;101821.84;5027087;28;20068;-73
2022/05/19 04:28:49;;;;;;;8.98;4.88;;;;;;;28.89;44.72;101822.72;5029032;28;20033;-73
2022/05/19 04:31:14;;;;;;;5.85;4.35;;;;;;;29.41;43.78;101833.34;5023649;28;20026;-73
2022/05/19 04:33:39;;;;;;;5.53;4.60;;;;;;;29.40;44.31;101832.50;5034393;28;20060;-73
2022/05/19 04:36:05;;;;;;;6.72;5.10;;;;;;;29.41;43.96;101836.03;5028897;28;20028;-72
2022/05/19 04:38:30;;;;;;;7.85;5.18;;;;;;;29.45;44.01;101856.38;5020885;28;20541;-73
2022/05/19 04:41:01;;;;;;;6.45;5.25;;;;;;;29.51;43.92;101866.69;5010122;28;20030;-72
2022/05/19 04:43:26;;;;;;;6.78;5.90;;;;;;;29.61;43.51;101864.19;5009247;28;20473;-72
2022/05/19 04:45:53;;;;;;;10.07;5.60;;;;;;;28.63;45.26;101872.09;5021818;28;20087;-72
2022/05/19 04:48:19;;;;;;;8.25;6.28;;;;;;;28.85;45.33;101858.00;5028806;28;20060;-72
2022/05/19 04:50:45;;;;;;;8.00;5.75;;;;;;;29.17;44.58;101853.00;5028532;28;20060;-72
2022/05/19 04:53:11;;;;;;;10.20;6.95;;;;;;;28.85;45.28;101858.91;5061128;28;20056;-72
2022/05/19 04:55:38;;;;;;;9.32;7.22;;;;;;;28.89;45.69;101854.13;5020459;28;20045;-73
2022/05/19 04:58:04;;;;;;;10.13;6.30;;;;;;;28.90;45.59;101850.47;5024194;28;20033;-72
2022/05/19 05:00:30;;;;;;;11.68;7.28;;;;;;;28.86;45.63;101836.38;5031409;28;20026;-73
2022/05/19 05:02:55;;;;;;;9.45;6.95;;;;;;;29.40;44.18;101823.53;5033886;28;20112;-72
2022/05/19 05:05:21;;;;;;;11.43;6.68;;;;;;;28.88;45.69;101821.00;5063813;28;20033;-72
2022/05/19 05:07:47;;;;;;;9.52;6.95;;;;;;;29.39;44.45;101803.00;5054231;28;20112;-73
2022/05/19 05:10:13;;;;;;;11.93;8.02;;;;;;;29.68;43.49;101797.25;5032923;28;20040;-72
2022/05/19 05:12:39;;;;;;;8.50;6.45;;;;;;;29.74;43.56;101785.97;5032131;28;20469;-72
2022/05/19 05:15:05;;;;;;;10.00;7.55;;;;;;;29.70;43.94;101784.50;5048971;28;20029;-72
2022/05/19 05:17:30;;;;;;;12.05;8.18;;;;;;;29.82;43.51;101786.25;5031307;28;20084;-72
2022/05/19 05:19:55;;;;;;;12.00;7.53;;;;;;;30.08;42.96;101778.00;5029966;28;20029;-72
2022/05/19 05:22:21;;;;;;;13.73;8.85;;;;;;;29.98;43.11;101763.53;5034282;28;20025;-72
2022/05/19 05:24:46;;;;;;;12.63;8.45;;;;;;;29.69;43.46;101755.84;5031502;28;20064;-72
2022/05/19 05:27:12;;;;;;;11.50;7.45;;;;;;;29.53;44.35;101751.63;5031757;28;20053;-72
2022/05/19 05:29:37;;;;;;;11.55;7.82;;;;;;;29.99;43.49;101744.53;5032678;28;20022;-71
2022/05/19 05:32:03;;;;;;;10.15;7.43;;;;;;;29.74;44.17;101737.50;5030766;28;20256;-71
2022/05/19 05:34:28;;;;;;;12.45;8.20;;;;;;;29.90;43.84;101738.03;5016467;28;20025;-72
2022/05/19 05:36:54;;;;;;;12.00;9.02;;;;;;;29.84;44.09;101738.50;5030799;28;20083;-72
2022/05/19 05:39:19;;;;;;;9.63;8.48;;;;;;;30.09;43.04;101748.25;5032060;28;20446;-72
2022/05/19 05:41:45;;;;;;;9.52;7.32;;;;;;;30.33;42.80;101752.66;5032401;28;20026;-71
2022/05/19 05:44:10;;;;;;;10.38;8.63;;;;;;;30.26;42.84;101746.88;5033224;28;20033;-72
2022/05/19 05:46:36;;;;;;;14.32;8.23;;;;;;;29.58;44.00;101748.56;5028954;28;20462;-72
2022/05/19 05:49:02;;;;;;;13.57;8.40;;;;;;;29.21;45.93;101735.19;5034750;28;20116;-72
2022/05/19 05:51:28;;;;;;;12.50;8.32;;;;;;;30.20;43.68;101733.03;5065785;28;20025;-72
2022/05/19 05:53:53;;;;;;;10.60;8.75;;;;;;;29.93;43.74;101732.41;5031409;28;20029;-72
2022/05/19 05:56:20;;;;;;;9.95;8.50;;;;;;;30.13;43.39;101732.69;5032587;28;20104;-72
2022/05/19 05:58:45;;;;;;;11.48;9.18;;;;;;;30.40;43.21;101723.34;5031695;28;20021;-72
2022/05/19 06:01:12;;;;;;;10.20;8.05;;;;;;;30.10;43.19;101716.75;5030905;28;20021;-72
2022/05/19 06:03:38;;;;;;;11.50;7.80;;;;;;;30.28;43.36;101706.31;5048603;28;20385;-72
2022/05/19 06:06:03;;;;;;;10.98;8.15;;;;;;;30.74;42.94;101696.38;5027270;28;20073;-72
2022/05/19 06:08:30;;;;;;;12.25;9.10;;;;;;;30.57;42.41;101682.44;5014626;28;20621;-72
2022/05/19 06:10:55;;;;;;;14.32;7.18;;;;;;;30.48;43.17;101677.78;5031623;28;20136;-72
2022/05/19 06:13:21;;;;;;;13.45;8.70;;;;;;;30.61;42.43;101673.09;5031522;28;20116;-71
2022/05/19 06:15:46;;;;;;;11.18;7.65;;;;;;;30.23;43.47;101671.66;5032326;28;20125;-71
2022/05/19 06:18:12;;;;;;;10.93;7.43;;;;;;;30.54;43.21;101677.31;5031587;28;20021;-71
2022/05/19 06:20:38;;;;;;;10.18;7.43;;;;;;;30.93;41.76;101683.06;5031755;28;20029;-71
2022/05/19 06:23:05;;;;;;;10.40;7.60;;;;;;;30.20;43.02;101709.66;5031842;28;20025;-71
2022/05/19 06:25:32;;;;;;;11.13;7.05;;;;;;;30.74;43.17;101712.56;5030934;28;20422;-72
2022/05/19 06:27:59;;;;;;;10.38;6.72;;;;;;;31.17;41.79;101727.03;5030738;28;20032;-72
2022/05/19 06:30:25;;;;;;;11.48;6.90;;;;;;;31.10;42.60;101727.53;5032730;28;20027;-72
2022/05/19 06:32:51;;;;;;;8.77;6.43;;;;;;;31.04;42.25;101728.06;5030660;28;20036;-72
2022/05/19 06:35:19;;;;;;;8.25;6.60;;;;;;;31.08;42.29;101723.28;5029423;28;20388;-71
2022/05/19 06:37:45;;;;;;;9.77;6.65;;;;;;;31.13;42.45;101718.34;5050458;28;20371;-72
2022/05/19 06:40:13;;;;;;;8.73;6.65;;;;;;;31.11;42.19;101717.63;5011921;28;20084;-71
2022/05/19 06:42:39;;;;;;;10.60;6.65;;;;;;;31.14;41.67;101701.16;5011148;28;20068;-72
2022/05/19 06:45:05;;;;;;;9.95;5.85;;;;;;;31.18;41.86;101697.22;5047631;28;20534;-72
2022/05/19 06:47:30;;;;;;;6.97;5.40;;;;;;;31.62;40.23;101703.38;5030956;28;20029;-72
2022/05/19 06:49:56;;;;;;;9.52;6.07;;;;;;;31.73;40.62;101699.75;5031709;28;20040;-72
2022/05/19 06:52:24;;;;;;;6.55;5.65;;;;;;;31.96;39.83;101703.16;5034351;28;20033;-72
2022/05/19 06:54:52;;;;;;;8.07;5.10;;;;;;;31.83;40.04;101707.06;5030299;28;20037;-71
2022/05/19 06:57:22;;;;;;;9.75;6.13;;;;;;;32.38;40.14;101717.59;5029806;28;20090;-72
2022/05/19 06:59:49;;;;;;;6.60;5.47;;;;;;;32.14;39.15;101716.94;5015144;28;20053;-72
2022/05/19 07:02:16;;;;;;;5.70;4.95;;;;;;;33.01;38.33;101719.16;5032680;28;20374;-72
2022/05/19 07:04:41;;;;;;;6.75;5.38;;;;;;;32.45;38.99;101726.84;5014599;28;20148;-71
2022/05/19 07:07:07;;;;;;;6.25;5.35;;;;;;;31.89;41.03;101723.63;5024562;28;20480;-71
2022/05/19 07:09:34;;;;;;;5.78;4.78;;;;;;;32.75;39.18;101725.13;5051477;28;20033;-71
2022/05/19 07:12:00;;;;;;;7.28;4.85;;;;;;;32.22;38.20;101734.31;5025681;28;20036;-71
2022/05/19 07:14:26;;;;;;;5.57;4.57;;;;;;;33.33;37.69;101729.72;5029836;28;20107;-71
2022/05/19 07:16:52;;;;;;;8.25;5.10;;;;;;;34.00;36.28;101740.63;5021134;28;20032;-71
2022/05/19 07:22:04;;;;;;;4.95;3.95;;;;;;;33.66;35.71;101746.50;5026817;28;20116;-71
2022/05/19 07:24:31;;;;;;;4.85;3.80;;;;;;;33.00;36.06;101758.06;5047784;28;20485;-72
2022/05/19 07:26:57;;;;;;;8.77;4.28;;;;;;;33.91;36.23;101764.06;5028419;28;20045;-72
2022/05/19 07:29:23;;;;;;;7.40;4.50;;;;;;;33.92;35.63;101768.50;5057541;28;20124;-72
2022/05/19 07:31:49;;;;;;;9.18;4.57;;;;;;;34.60;34.91;101771.97;5062218;28;20037;-72
2022/05/19 07:34:19;;;;;;;9.13;4.43;;;;;;;34.18;35.90;101761.56;5032029;28;20033;-72
2022/05/19 07:36:44;;;;;;;10.13;4.75;;;;;;;34.22;35.79;101755.66;5028269;28;20116;-71
2022/05/19 07:39:11;;;;;;;5.90;4.15;;;;;;;33.80;36.27;101750.69;5057194;28;20117;-71
2022/05/19 07:41:38;;;;;;;6.97;4.63;;;;;;;34.20;34.95;101749.56;5010758;28;20054;-72
2022/05/19 07:44:04;;;;;;;5.93;4.03;;;;;;;33.62;36.31;101740.56;5010822;28;20044;-72
2022/05/19 07:46:30;;;;;;;8.20;4.78;;;;;;;34.36;35.25;101745.38;5023262;28;20099;-72
2022/05/19 07:48:56;;;;;;;7.20;4.28;;;;;;;33.24;36.59;101747.72;5032951;28;20555;-71
2022/05/19 07:51:24;;;;;;;6.38;4.18;;;;;;;32.58;37.59;101757.22;5031373;28;20060;-72
2022/05/19 07:53:50;;;;;;;7.90;4.55;;;;;;;33.06;37.08;101744.81;5030640;28;20553;-72
2022/05/19 07:56:15;;;;;;;5.28;4.38;;;;;;;33.65;36.10;101753.81;5026293;28;20048;-72
2022/05/19 07:58:41;;;;;;;6.45;4.68;;;;;;;32.48;37.06;101754.50;5026006;28;20020;-72
2022/05/19 08:01:07;;;;;;;6.40;4.03;;;;;;;34.42;35.04;101753.75;5028864;28;20029;-72
2022/05/19 08:03:33;;;;;;;8.07;4.45;;;;;;;34.24;34.51;101750.97;5030162;28;20393;-72
2022/05/19 08:05:59;;;;;;;10.13;4.97;;;;;;;35.66;33.75;101760.47;5030206;28;20024;-72
2022/05/19 08:08:25;;;;;;;6.70;4.70;;;;;;;36.19;32.90;101753.19;5025615;28;20029;-71
2022/05/19 08:10:57;;;;;;;5.20;3.95;;;;;;;36.25;30.69;101760.69;5030324;28;20463;-72
2022/05/19 08:16:06;;;;;;;4.75;3.17;;;;;;;36.46;29.98;101754.00;5025372;28;20155;-73
2022/05/19 08:18:33;;;;;;;3.50;3.10;;;;;;;37.54;28.76;101747.75;5025669;28;20488;-72
2022/05/19 08:21:01;;;;;;;4.13;3.22;;;;;;;37.69;30.63;101735.09;5026319;28;20021;-71
2022/05/19 08:23:38;;;;;;;4.93;3.53;;;;;;;38.26;30.08;101744.19;5032990;28;20025;-71
2022/05/19 08:26:05;;;;;;;7.63;3.13;;;;;;;38.80;27.49;101737.09;5024226;28;20049;-71
2022/05/19 08:28:31;;;;;;;3.60;3.08;;;;;;;38.90;27.36;101743.19;5027441;28;20499;-71
2022/05/19 08:31:28;;;;;;;3.65;3.08;;;;;;;38.55;27.95;101747.31;5058023;28;20053;-71
2022/05/19 08:33:54;;;;;;;3.67;2.85;;;;;;;38.52;27.77;101751.25;5026941;28;20040;-71
2022/05/19 08:36:21;;;;;;;4.68;2.33;;;;;;;38.48;26.33;101749.91;5054870;28;20018;-72
2022/05/19 08:38:47;;;;;;;3.80;2.45;;;;;;;38.27;25.75;101743.16;5022652;28;20111;-71
2022/05/19 08:41:35;;;;;;;8.20;2.72;;;;;;;39.64;27.18;101744.50;5034985;28;20101;-71
2022/05/19 08:44:22;;;;;;;3.90;2.47;;;;;;;40.13;24.40;101748.59;5032590;28;20021;-72
2022/05/19 08:46:50;;;;;;;3.65;2.60;;;;;;;38.59;24.38;101752.22;5054720;28;20033;-71
2022/05/19 08:49:28;;;;;;;3.92;2.20;;;;;;;39.11;24.26;101750.72;5033102;28;20029;-72
2022/05/19 08:52:04;;;;;;;3.22;2.30;;;;;;;39.18;25.07;101745.41;5033394;28;20033;-71
2022/05/19 08:54:32;;;;;;;3.55;2.72;;;;;;;38.40;26.43;101747.22;5032683;28;20034;-71
2022/05/19 08:57:13;;;;;;;2.88;2.60;;;;;;;38.84;26.32;101752.09;5034139;28;20030;-72
2022/05/19 08:59:47;;;;;;;4.40;2.70;;;;;;;38.58;25.89;101756.00;5034571;28;20025;-71
2022/05/19 09:02:37;;;;;;;5.28;2.80;;;;;;;38.73;25.17;101752.53;5033427;28;20065;-71
2022/05/19 09:05:21;;;;;;;3.63;2.78;;;;;;;37.66;26.99;101745.50;5033039;28;20060;-72
2022/05/19 09:08:31;;;;;;;6.07;3.20;;;;;;;37.77;28.83;101753.38;5032032;28;20072;-71
2022/05/19 09:11:10;;;;;;;2.90;2.60;;;;;;;37.35;27.67;101762.56;5012783;28;20084;-72
2022/05/19 09:13:37;;;;;;;4.55;2.92;;;;;;;37.31;27.44;101764.78;5046321;28;20034;-72
2022/05/19 09:16:11;;;;;;;4.85;3.00;;;;;;;37.50;26.57;101769.03;5033308;28;20507;-71
2022/05/19 09:18:40;;;;;;;3.75;2.90;;;;;;;36.63;27.82;101766.66;5033419;28;20485;-71
2022/05/19 09:21:06;;;;;;;3.50;2.45;;;;;;;36.43;27.59;101760.63;5034509;28;20029;-71
2022/05/19 09:23:35;;;;;;;3.78;2.60;;;;;;;35.62;28.95;101769.97;5032814;28;20036;-71
2022/05/19 09:26:06;;;;;;;2.65;2.30;;;;;;;37.14;27.78;101763.06;5031799;28;20057;-71
2022/05/19 09:28:32;;;;;;;4.70;2.83;;;;;;;37.17;27.68;101768.16;5032463;28;20401;-71
2022/05/19 09:30:57;;;;;;;3.42;2.83;;;;;;;37.44;28.26;101753.38;5032322;28;20068;-71
2022/05/19 09:33:29;;;;;;;5.00;3.58;;;;;;;36.73;28.37;101754.78;5033030;28;20134;-71
2022/05/19 09:35:55;;;;;;;;;;;;;;;38.57;26.41;101757.03;5032735;28;20404;-71
2022/05/19 09:38:43;;;;;;;3.78;2.97;;;;;;;39.29;25.18;101752.31;5031156;28;19967;-72
2022/05/19 09:41:21;;;;;;;3.35;2.67;;;;;;;40.50;25.21;101736.66;5032210;28;20034;-71
2022/05/19 09:43:53;;;;;;;3.63;2.85;;;;;;;42.29;23.37;101743.06;5033850;28;20079;-71
2022/05/19 09:46:19;;;;;;;5.95;3.08;;;;;;;41.95;23.02;101742.00;5031069;28;20040;-71
2022/05/19 09:49:03;;;;;;;4.10;2.85;;;;;;;42.86;21.62;101737.31;5031664;28;20026;-71
2022/05/19 09:51:39;;;;;;;3.42;2.95;;;;;;;41.42;23.36;101738.88;5016301;28;20120;-71
2022/05/19 09:54:05;;;;;;;4.90;3.30;;;;;;;42.51;21.59;101727.28;5032404;28;20410;-72
2022/05/19 09:56:44;;;;;;;3.13;2.72;;;;;;;42.62;22.91;101728.56;5032415;28;20029;-71
2022/05/19 09:59:15;;;;;;;3.30;2.95;;;;;;;43.35;20.82;101714.06;5032282;28;20544;-71
2022/05/19 10:01:45;;;;;;;5.65;3.35;;;;;;;44.01;19.83;101706.78;5032924;28;20032;-71
2022/05/19 10:04:29;;;;;;;5.15;3.05;;;;;;;43.33;21.02;101710.69;5031480;28;20394;-72
2022/05/19 10:07:07;;;;;;;4.70;3.42;;;;;;;42.08;21.35;101712.94;5031596;28;20036;-71
2022/05/19 10:09:42;;;;;;;4.03;3.58;;;;;;;41.80;22.91;101711.13;5030681;28;20079;-71
2022/05/19 10:12:12;;;;;;;5.38;4.07;;;;;;;40.03;24.46;101710.56;5033001;28;20059;-71
2022/05/19 10:14:40;;;;;;;5.43;4.40;;;;;;;39.59;25.74;101704.00;5031294;28;20028;-71
2022/05/19 10:17:19;;;;;;;4.80;4.07;;;;;;;40.36;24.06;101680.88;5033681;28;20025;-71
2022/05/19 10:19:44;;;;;;;6.45;3.85;;;;;;;39.52;24.74;101687.50;5031136;28;20038;-71
2022/05/19 10:22:37;;;;;;;4.85;3.83;;;;;;;39.69;25.71;101698.28;5031551;28;20116;-71
2022/05/19 10:25:08;;;;;;;;;;;;;;;39.45;25.30;101724.00;5032466;28;20493;-71
2022/05/19 10:31:03;;;;;;;6.00;4.55;;;;;;;37.85;27.57;101742.44;5021409;28;20049;-71
2022/05/19 10:33:41;;;;;;;6.93;4.80;;;;;;;36.83;28.75;101740.00;5030556;28;20029;-71
2022/05/19 10:36:41;;;;;;;5.70;5.10;;;;;;;36.83;27.91;101744.59;5031142;28;20041;-71
2022/05/19 10:39:29;;;;;;;8.98;5.63;;;;;;;36.55;29.68;101760.31;5031996;28;20036;-71
2022/05/19 10:42:17;;;;;;;7.20;5.00;;;;;;;36.62;29.24;101748.59;5054813;28;20029;-71
2022/05/19 10:45:21;;;;;;;9.18;6.30;;;;;;;36.13;30.41;101745.66;5031399;28;20021;-71
2022/05/19 10:48:29;;;;;;;7.45;6.03;;;;;;;35.82;30.12;101757.06;5032697;28;20032;-71
2022/05/19 10:51:03;;;;;;;8.00;6.68;;;;;;;35.61;31.89;101750.09;5030916;28;20489;-71
2022/05/19 10:53:28;;;;;;;8.98;7.10;;;;;;;35.77;31.52;101753.94;5030988;28;20116;-71
2022/05/19 10:56:07;;;;;;;8.57;6.07;;;;;;;35.26;32.71;101778.13;5030270;28;20616;-70
2022/05/19 10:59:03;;;;;;;11.57;6.93;;;;;;;33.87;35.20;101814.16;5063796;28;20033;-71
2022/05/19 11:01:57;;;;;;;18.75;9.05;;;;;;;31.97;41.73;101863.47;5054543;28;20449;-69
2022/05/19 11:04:45;;;;;;;12.05;5.85;;;;;;;27.76;50.22;101891.38;5026305;28;20041;-72
2022/05/19 11:07:29;;;;;;;6.72;3.40;;;;;;;26.46;56.49;101867.38;5031076;28;20076;-71
2022/05/19 11:09:54;;;;;;;12.98;3.58;;;;;;;25.88;55.87;101877.91;5030402;28;20176;-72
2022/05/19 11:12:35;;;;;;;10.02;5.15;;;;;;;26.30;59.26;101893.38;5030319;28;20549;-72
2022/05/19 11:15:11;;;;;;;9.98;7.47;;;;;;;27.16;56.21;101920.28;5017249;28;20025;-74
2022/05/19 11:17:48;;;;;;;14.90;9.88;;;;;;;28.96;50.64;101927.19;5014105;28;20127;-75
2022/05/19 11:20:20;;;;;;;16.35;10.73;;;;;;;27.52;54.66;101948.44;5032753;28;20052;-76
2022/05/19 11:22:51;;;;;;;21.25;12.70;;;;;;;27.84;53.88;101953.53;5029974;28;20038;-74
2022/05/19 11:28:38;;;;;;;22.15;14.80;;;;;;;28.70;51.00;101946.91;5032653;28;20126;-75
2022/05/19 11:31:15;;;;;;;18.90;14.48;;;;;;;29.03;49.54;101915.03;5030309;28;20428;-75
2022/05/19 11:33:48;;;;;;;23.95;15.70;;;;;;;28.78;50.69;101889.88;5043056;28;20055;-75
2022/05/19 11:36:18;;;;;;;;;;;;;;;29.25;48.62;101904.47;5032598;28;20029;-74
2022/05/19 11:38:48;;;;;;;23.02;16.40;;;;;;;27.77;54.26;101930.72;5029679;28;19913;-75
2022/05/19 11:41:24;;;;;;;22.33;15.73;;;;;;;28.39;50.85;101937.38;5062848;28;20025;-75
2022/05/19 11:43:51;;;;;;;21.88;15.65;;;;;;;28.09;53.22;101938.50;5028769;28;20030;-75